createdAt,value
2023-01-03T00:01:33.468Z,7.10
2023-01-03T00:04:02.915Z,7.00
2023-01-03T00:06:33.536Z,7.00
2023-01-03T00:09:05.892Z,6.90
2023-01-03T00:11:53.261Z,6.80
2023-01-03T00:14:24.188Z,6.80
2023-01-03T00:16:55.484Z,6.70
2023-01-03T00:19:29.102Z,6.70
2023-01-03T00:21:58.109Z,6.70
2023-01-03T00:24:28.172Z,6.70
2023-01-03T00:26:56.705Z,6.70
2023-01-03T00:29:27.057Z,6.70
2023-01-03T00:31:55.689Z,6.70
2023-01-03T00:34:24.521Z,6.80
2023-01-03T00:36:53.108Z,6.80
2023-01-03T00:39:22.147Z,6.80
2023-01-03T00:41:52.469Z,6.90
2023-01-03T00:44:21.583Z,6.90
2023-01-03T00:46:50.195Z,6.90
2023-01-03T00:49:18.822Z,7.00
2023-01-03T00:51:47.627Z,7.00
2023-01-03T00:54:17.456Z,7.00
2023-01-03T00:56:47.731Z,7.00
2023-01-03T00:59:19.212Z,7.00
2023-01-03T01:01:50.139Z,7.00
2023-01-03T01:04:21.489Z,7.00
2023-01-03T01:06:55.579Z,7.10
2023-01-03T01:09:25.686Z,7.10
2023-01-03T01:11:55.091Z,7.10
2023-01-03T01:14:29.908Z,7.10
2023-01-03T01:17:00.358Z,7.10
2023-01-03T01:19:31.040Z,7.10
2023-01-03T01:21:59.936Z,7.10
2023-01-03T01:24:28.568Z,7.10
2023-01-03T01:26:57.288Z,7.10
2023-01-03T01:29:27.452Z,7.10
2023-01-03T01:31:56.931Z,7.10
2023-01-03T01:34:25.524Z,7.10
2023-01-03T01:36:54.299Z,7.10
2023-01-03T01:39:24.492Z,7.40
2023-01-03T01:42:19.340Z,7.10
2023-01-03T01:44:54.168Z,7.10
2023-01-03T01:47:31.654Z,7.10
2023-01-03T01:50:06.749Z,7.10
2023-01-03T01:52:38.843Z,7.20
2023-01-03T01:55:10.908Z,7.20
2023-01-03T01:57:39.619Z,7.10
2023-01-03T02:00:12.299Z,7.20
2023-01-03T02:02:49.260Z,7.20
2023-01-03T02:05:19.616Z,7.30
2023-01-03T02:07:50.458Z,7.20
2023-01-03T02:10:19.881Z,7.20
2023-01-03T02:13:06.484Z,7.20
2023-01-03T02:16:12.016Z,7.20
2023-01-03T02:18:48.733Z,7.20
2023-01-03T02:21:48.390Z,7.30
2023-01-03T02:24:43.970Z,7.30
2023-01-03T02:27:39.048Z,7.30
2023-01-03T02:30:36.982Z,7.30
2023-01-03T02:33:21.609Z,7.30
2023-01-03T02:35:57.086Z,7.30
2023-01-03T02:38:33.737Z,7.30
2023-01-03T02:41:10.051Z,7.40
2023-01-03T02:43:43.309Z,7.40
2023-01-03T02:46:17.614Z,7.40
2023-01-03T02:48:53.422Z,7.40
2023-01-03T02:51:34.382Z,7.40
2023-01-03T02:54:04.964Z,7.50
2023-01-03T02:56:39.135Z,7.50
2023-01-03T02:59:12.576Z,7.40
2023-01-03T03:01:44.960Z,7.40
2023-01-03T03:04:15.448Z,7.40
2023-01-03T03:06:50.135Z,7.40
2023-01-03T03:09:18.876Z,7.40
2023-01-03T03:12:06.453Z,7.40
2023-01-03T03:14:38.222Z,7.40
2023-01-03T03:17:14.817Z,7.40
2023-01-03T03:20:07.056Z,7.50
2023-01-03T03:22:57.348Z,7.40
2023-01-03T03:25:29.990Z,7.50
2023-01-03T03:28:19.810Z,7.40
2023-01-03T03:30:51.929Z,7.40
2023-01-03T03:33:24.918Z,7.40
2023-01-03T03:35:58.525Z,7.40
2023-01-03T03:38:34.175Z,7.40
2023-01-03T03:41:34.347Z,7.40
2023-01-03T03:44:26.598Z,7.40
2023-01-03T03:47:04.153Z,7.50
2023-01-03T03:49:39.849Z,7.50
2023-01-03T03:52:13.852Z,7.50
2023-01-03T03:54:47.825Z,7.50
2023-01-03T03:57:21.972Z,7.50
2023-01-03T03:59:53.820Z,7.50
2023-01-03T04:02:25.036Z,7.50
2023-01-03T04:04:59.533Z,7.50
2023-01-03T04:07:28.259Z,7.50
2023-01-03T04:09:56.976Z,7.50
2023-01-03T04:12:25.855Z,7.50
2023-01-03T04:14:54.435Z,7.50
2023-01-03T04:17:23.090Z,7.50
2023-01-03T04:19:51.862Z,7.50
2023-01-03T04:22:21.865Z,7.50
2023-01-03T04:24:50.450Z,7.50
2023-01-03T04:27:19.028Z,7.50
2023-01-03T04:29:47.502Z,7.50
2023-01-03T04:32:16.163Z,7.50
2023-01-03T04:34:44.683Z,7.50
2023-01-03T04:37:13.901Z,7.50
2023-01-03T04:39:43.959Z,7.50
2023-01-03T04:42:26.416Z,7.50
2023-01-03T04:44:54.937Z,7.50
2023-01-03T04:47:23.420Z,7.50
2023-01-03T04:49:52.641Z,7.50
2023-01-03T04:52:21.214Z,7.50
2023-01-03T04:54:51.137Z,7.50
2023-01-03T04:57:19.673Z,7.60
2023-01-03T04:59:48.188Z,7.50
2023-01-03T05:02:16.863Z,7.50
2023-01-03T05:04:45.539Z,7.50
2023-01-03T05:07:14.107Z,7.50
2023-01-03T05:09:42.650Z,7.60
2023-01-03T05:12:12.655Z,7.60
2023-01-03T05:14:41.732Z,7.60
2023-01-03T05:17:10.566Z,7.50
2023-01-03T05:19:59.184Z,7.50
2023-01-03T05:22:45.411Z,9.00
2023-01-03T05:25:31.347Z,7.50
2023-01-03T05:28:02.324Z,7.50
2023-01-03T05:30:30.909Z,7.50
2023-01-03T05:32:59.493Z,7.50
2023-01-03T05:35:28.039Z,7.50
2023-01-03T05:37:56.706Z,7.50
2023-01-03T05:40:25.271Z,7.40
2023-01-03T05:42:53.793Z,7.40
2023-01-03T05:45:27.170Z,7.40
2023-01-03T05:47:58.539Z,7.40
2023-01-03T05:50:27.185Z,7.30
2023-01-03T05:52:55.739Z,7.30
2023-01-03T05:55:24.742Z,7.20
2023-01-03T05:57:53.325Z,7.10
2023-01-03T06:00:23.373Z,7.10
2023-01-03T06:02:51.903Z,7.00
2023-01-03T06:05:20.578Z,7.00
2023-01-03T06:07:49.139Z,6.90
2023-01-03T06:10:17.886Z,6.90
2023-01-03T06:12:46.658Z,6.80
2023-01-03T06:15:15.209Z,6.80
2023-01-03T06:17:58.081Z,6.80
2023-01-03T06:20:27.871Z,6.70
2023-01-03T06:22:56.861Z,6.70
2023-01-03T06:25:25.848Z,6.70
2023-01-03T06:27:54.420Z,6.60
2023-01-03T06:30:22.923Z,6.60
2023-01-03T06:32:52.889Z,6.50
2023-01-03T06:35:21.511Z,6.50
2023-01-03T06:37:49.987Z,6.50
2023-01-03T06:40:19.374Z,6.50
2023-01-03T06:42:47.911Z,6.40
2023-01-03T06:45:34.204Z,6.40
2023-01-03T06:48:24.751Z,6.40
2023-01-03T06:51:11.790Z,6.30
2023-01-03T06:53:43.289Z,6.50
2023-01-03T06:56:12.308Z,6.30
2023-01-03T06:58:42.569Z,6.20
2023-01-03T07:01:13.646Z,6.30
2023-01-03T07:03:43.533Z,6.30
2023-01-03T07:06:12.046Z,6.20
2023-01-03T07:08:47.914Z,6.20
2023-01-03T07:11:17.068Z,6.20
2023-01-03T07:14:00.906Z,6.10
2023-01-03T07:16:31.686Z,6.10
2023-01-03T07:19:01.976Z,6.10
2023-01-03T07:21:32.360Z,6.10
2023-01-03T07:24:02.646Z,6.00
2023-01-03T07:26:33.437Z,6.00
2023-01-03T07:29:03.585Z,6.00
2023-01-03T07:31:32.775Z,5.90
2023-01-03T07:34:03.068Z,5.90
2023-01-03T07:36:31.619Z,5.90
2023-01-03T07:39:00.337Z,5.90
2023-01-03T07:41:49.091Z,5.90
2023-01-03T07:44:16.668Z,5.90
2023-01-03T07:46:45.340Z,5.90
2023-01-03T07:49:15.313Z,5.90
2023-01-03T07:51:43.890Z,5.90
2023-01-03T07:54:12.443Z,5.90
2023-01-03T07:56:41.050Z,5.80
2023-01-03T07:59:10.295Z,5.80
2023-01-03T08:01:39.065Z,5.80
2023-01-03T08:04:07.684Z,5.80
2023-01-03T08:06:37.573Z,5.80
2023-01-03T08:09:23.873Z,5.80
2023-01-03T08:12:09.742Z,5.90
2023-01-03T08:14:38.580Z,5.90
2023-01-03T08:17:07.916Z,5.90
2023-01-03T08:19:41.714Z,6.00
2023-01-03T08:22:15.159Z,6.00
2023-01-03T08:24:43.630Z,6.00
2023-01-03T08:27:12.237Z,6.10
2023-01-03T08:29:40.839Z,6.10
2023-01-03T08:32:09.408Z,6.20
2023-01-03T08:34:38.784Z,6.30
2023-01-03T08:37:10.953Z,6.40
2023-01-03T08:39:45.016Z,6.50
2023-01-03T08:42:16.575Z,6.60
2023-01-03T08:44:45.835Z,6.70
2023-01-03T08:47:16.613Z,6.70
2023-01-03T08:49:45.253Z,6.80
2023-01-03T08:52:13.863Z,6.90
2023-01-03T08:54:44.341Z,7.00
2023-01-03T08:57:12.946Z,7.10
2023-01-03T08:59:41.517Z,7.20
2023-01-03T09:02:10.317Z,7.20
2023-01-03T09:04:38.981Z,7.30
2023-01-03T09:07:07.581Z,7.30
2023-01-03T09:09:36.185Z,7.30
2023-01-03T09:12:06.375Z,7.40
2023-01-03T09:14:34.972Z,7.50
2023-01-03T09:17:03.744Z,7.60
2023-01-03T09:19:32.308Z,7.70
2023-01-03T09:22:01.007Z,7.80
2023-01-03T09:24:29.574Z,7.90
2023-01-03T09:26:58.177Z,8.00
2023-01-03T09:29:28.111Z,8.10
2023-01-03T09:31:56.827Z,8.20
2023-01-03T09:34:25.396Z,8.20
2023-01-03T09:36:53.963Z,8.30
2023-01-03T09:39:22.577Z,8.40
2023-01-03T09:42:11.480Z,8.50
2023-01-03T09:44:41.875Z,8.50
2023-01-03T09:47:18.560Z,8.60
2023-01-03T09:50:11.685Z,8.60
2023-01-03T09:52:53.618Z,8.70
2023-01-03T09:55:48.863Z,8.80
2023-01-03T09:58:34.918Z,8.80
2023-01-03T10:01:35.840Z,8.90
2023-01-03T10:04:20.489Z,9.00
2023-01-03T10:06:57.505Z,9.10
2023-01-03T10:09:34.157Z,9.10
2023-01-03T10:12:13.747Z,9.10
2023-01-03T10:14:56.618Z,9.20
2023-01-03T10:17:35.490Z,9.20
2023-01-03T10:20:35.977Z,9.30
2023-01-03T10:23:06.589Z,9.30
2023-01-03T10:25:38.078Z,9.30
2023-01-03T10:28:13.584Z,9.40
2023-01-03T10:31:00.951Z,9.40
2023-01-03T10:33:43.058Z,9.50
2023-01-03T10:36:11.835Z,9.50
2023-01-03T10:38:47.813Z,9.60
2023-01-03T10:41:22.654Z,9.60
2023-01-03T10:43:58.569Z,9.70
2023-01-03T10:46:28.125Z,9.70
2023-01-03T10:49:27.282Z,9.80
2023-01-03T10:52:00.024Z,9.80
2023-01-03T10:54:34.434Z,9.90
2023-01-03T10:57:03.120Z,9.90
2023-01-03T10:59:33.224Z,10.00
2023-01-03T11:02:15.196Z,10.00
2023-01-03T11:04:45.799Z,10.10
2023-01-03T11:07:16.919Z,10.10
2023-01-03T11:09:51.708Z,10.20
2023-01-03T11:12:28.640Z,10.20
2023-01-03T11:15:01.038Z,10.30
2023-01-03T11:17:30.814Z,10.30
2023-01-03T11:20:00.662Z,10.30
2023-01-03T11:22:38.357Z,10.40
2023-01-03T11:25:33.123Z,10.40
2023-01-03T11:28:25.998Z,10.50
2023-01-03T11:31:00.206Z,10.60
2023-01-03T11:33:40.758Z,10.60
2023-01-03T11:36:31.482Z,10.60
2023-01-03T11:39:16.165Z,10.60
2023-01-03T11:42:09.107Z,10.60
2023-01-03T11:45:05.465Z,10.50
2023-01-03T11:47:39.816Z,10.50
2023-01-03T11:50:24.836Z,10.50
2023-01-03T11:53:00.303Z,10.40
2023-01-03T11:55:44.797Z,10.40
2023-01-03T11:58:54.826Z,10.40
2023-01-03T12:01:39.308Z,10.40
2023-01-03T12:04:25.790Z,10.50
2023-01-03T12:07:45.799Z,10.60
2023-01-03T12:10:03.112Z,10.70
2023-01-03T12:12:49.545Z,10.80
2023-01-03T12:15:22.324Z,10.90
2023-01-03T12:17:55.870Z,10.90
2023-01-03T12:20:28.171Z,11.00
2023-01-03T12:23:02.055Z,11.00
2023-01-03T12:25:36.915Z,11.00
2023-01-03T12:28:16.004Z,11.00
2023-01-03T12:30:49.443Z,11.00
2023-01-03T12:33:26.974Z,11.10
2023-01-03T12:36:01.019Z,11.10
2023-01-03T12:38:34.997Z,11.10
2023-01-03T12:41:15.083Z,11.10
2023-01-03T12:43:52.387Z,11.20
2023-01-03T12:46:25.857Z,11.20
2023-01-03T12:48:59.676Z,11.30
2023-01-03T12:51:30.160Z,11.30
2023-01-03T12:54:10.209Z,11.40
2023-01-03T12:57:05.281Z,11.40
2023-01-03T13:00:08.137Z,11.40
2023-01-03T13:02:46.977Z,11.40
2023-01-03T13:05:21.411Z,11.40
2023-01-03T13:07:59.561Z,11.50
2023-01-03T13:10:30.933Z,11.50
2023-01-03T13:13:02.473Z,11.50
2023-01-03T13:15:36.530Z,11.40
2023-01-03T13:18:31.768Z,11.40
2023-01-03T13:21:00.955Z,11.50
2023-01-03T13:23:33.223Z,11.40
2023-01-03T13:26:21.687Z,11.40
2023-01-03T13:28:52.423Z,11.30
2023-01-03T13:32:04.603Z,11.30
2023-01-03T13:34:35.877Z,11.20
2023-01-03T13:37:23.182Z,11.10
2023-01-03T13:41:07.638Z,11.10
2023-01-03T13:43:21.607Z,11.10
2023-01-03T13:46:00.688Z,11.10
2023-01-03T13:48:41.780Z,11.10
2023-01-03T13:51:36.462Z,11.10
2023-01-03T13:54:25.672Z,11.10
2023-01-03T13:57:02.295Z,10.80
2023-01-03T13:59:35.874Z,11.10
2023-01-03T14:02:36.310Z,11.00
2023-01-03T14:05:31.124Z,11.00
2023-01-03T14:08:15.339Z,11.00
2023-01-03T14:11:04.442Z,10.90
2023-01-03T14:13:39.683Z,10.90
2023-01-03T14:16:25.656Z,10.90
2023-01-03T14:19:05.080Z,11.00
2023-01-03T14:21:44.633Z,11.00
2023-01-03T14:24:24.344Z,10.90
2023-01-03T14:26:53.816Z,10.90
2023-01-03T14:29:24.620Z,10.90
2023-01-03T14:31:56.148Z,10.80
2023-01-03T14:34:31.434Z,10.70
2023-01-03T14:37:05.445Z,10.70
2023-01-03T14:42:04.222Z,10.70
2023-01-03T14:44:33.677Z,10.80
2023-01-03T14:47:04.979Z,10.60
2023-01-03T14:49:43.687Z,10.60
2023-01-03T14:52:19.222Z,10.60
2023-01-03T14:54:50.367Z,10.60
2023-01-03T14:57:21.080Z,10.60
2023-01-03T14:59:50.246Z,10.60
2023-01-03T15:02:20.114Z,10.50
2023-01-03T15:04:54.939Z,10.50
2023-01-03T15:07:32.892Z,10.40
2023-01-03T15:10:17.644Z,10.30
2023-01-03T15:12:49.257Z,10.20
2023-01-03T15:15:22.710Z,10.10
2023-01-03T15:17:54.301Z,10.10
2023-01-03T15:20:31.839Z,10.00
2023-01-03T15:23:00.560Z,9.90
2023-01-03T15:25:34.049Z,9.80
2023-01-03T15:28:27.962Z,9.70
2023-01-03T15:30:58.652Z,9.60
2023-01-03T15:33:33.421Z,9.50
2023-01-03T15:36:09.901Z,9.50
2023-01-03T15:38:44.962Z,9.40
2023-01-03T15:41:42.117Z,9.30
2023-01-03T15:44:10.853Z,9.30
2023-01-03T15:46:44.854Z,9.20
2023-01-03T15:49:15.788Z,9.20
2023-01-03T15:51:45.787Z,9.10
2023-01-03T15:54:15.669Z,9.10
2023-01-03T15:56:49.755Z,9.00
2023-01-03T15:59:24.415Z,9.00
2023-01-03T16:01:53.592Z,8.90
2023-01-03T16:04:22.846Z,8.90
2023-01-03T16:06:53.495Z,8.90
2023-01-03T16:09:22.422Z,8.80
2023-01-03T16:11:57.217Z,8.80
2023-01-03T16:14:33.974Z,8.70
2023-01-03T16:17:03.494Z,8.60
2023-01-03T16:19:33.539Z,8.60
2023-01-03T16:24:54.609Z,8.50
2023-01-03T16:27:25.658Z,8.40
2023-01-03T16:29:55.035Z,8.30
2023-01-03T16:32:27.422Z,8.20
2023-01-03T16:34:57.999Z,8.20
2023-01-03T16:37:28.166Z,8.10
2023-01-03T16:39:58.190Z,8.00
2023-01-03T16:42:28.406Z,8.00
2023-01-03T16:44:57.754Z,7.90
2023-01-03T16:47:31.736Z,7.90
2023-01-03T16:50:01.958Z,7.90
2023-01-03T16:52:34.641Z,7.90
2023-01-03T16:55:07.193Z,7.90
2023-01-03T16:57:35.744Z,7.90
2023-01-03T17:00:12.477Z,7.80
2023-01-03T17:02:41.247Z,7.80
2023-01-03T17:05:10.648Z,7.90
2023-01-03T17:07:42.046Z,7.90
2023-01-03T17:10:20.368Z,7.90
2023-01-03T17:12:49.305Z,7.90
2023-01-03T17:15:18.133Z,8.00
2023-01-03T17:17:46.870Z,7.90
2023-01-03T17:20:16.837Z,8.00
2023-01-03T17:22:51.475Z,8.00
2023-01-03T17:25:20.243Z,8.00
2023-01-03T17:27:53.677Z,8.00
2023-01-03T17:30:25.063Z,8.00
2023-01-03T17:32:53.951Z,8.20
2023-01-03T17:35:22.576Z,8.10
2023-01-03T17:38:24.086Z,8.10
2023-01-03T17:40:45.357Z,8.10
2023-01-03T17:43:22.245Z,8.00
2023-01-03T17:46:11.275Z,8.00
2023-01-03T17:48:57.728Z,8.00
2023-01-03T17:51:26.463Z,7.90
2023-01-03T17:53:56.690Z,7.90
2023-01-03T17:56:25.588Z,7.90
2023-01-03T17:58:56.459Z,7.90
2023-01-03T18:01:25.501Z,8.00
2023-01-03T18:03:54.141Z,7.90
2023-01-03T18:06:25.435Z,7.90
2023-01-03T18:08:56.971Z,7.90
2023-01-03T18:11:28.204Z,7.90
2023-01-03T18:13:56.785Z,7.90
2023-01-03T18:16:25.438Z,7.80
2023-01-03T18:18:54.006Z,7.80
2023-01-03T18:21:24.351Z,7.80
2023-01-03T18:23:58.331Z,7.80
2023-01-03T18:26:33.384Z,7.80
2023-01-03T18:29:02.358Z,7.80
2023-01-03T18:31:31.278Z,7.80
2023-01-03T18:34:04.384Z,7.80
2023-01-03T18:36:39.707Z,7.80
2023-01-03T18:39:14.110Z,7.80
2023-01-03T18:41:43.935Z,7.80
2023-01-03T18:44:20.525Z,7.80
2023-01-03T18:46:49.165Z,7.80
2023-01-03T18:49:18.871Z,7.80
2023-01-03T18:51:49.767Z,7.80
2023-01-03T18:54:20.815Z,7.80
2023-01-03T18:56:49.432Z,7.90
2023-01-03T18:59:22.448Z,7.90
2023-01-03T19:01:51.470Z,7.90
2023-01-03T19:04:20.238Z,7.90
2023-01-03T19:06:51.269Z,7.90
2023-01-03T19:09:23.146Z,7.90
2023-01-03T19:11:52.581Z,7.80
2023-01-03T19:14:21.589Z,7.80
2023-01-03T19:16:50.218Z,7.80
2023-01-03T19:19:18.768Z,7.90
2023-01-03T19:21:48.804Z,7.80
2023-01-03T19:24:24.522Z,7.80
2023-01-03T19:26:55.685Z,7.80
2023-01-03T19:29:28.329Z,7.80
2023-01-03T19:31:58.998Z,7.70
2023-01-03T19:34:28.826Z,7.70
2023-01-03T19:36:59.192Z,7.80
2023-01-03T19:39:35.217Z,7.80
2023-01-03T19:42:25.544Z,7.80
2023-01-03T19:44:55.117Z,7.90
2023-01-03T19:47:23.735Z,7.90
2023-01-03T19:49:52.374Z,7.90
2023-01-03T19:52:20.893Z,8.00
2023-01-03T19:54:50.791Z,8.00
2023-01-03T19:57:23.630Z,8.00
2023-01-03T19:59:55.164Z,8.00
2023-01-03T20:02:37.121Z,8.00
2023-01-03T20:05:15.385Z,8.00
2023-01-03T20:07:44.463Z,8.00
2023-01-03T20:10:22.344Z,8.10
2023-01-03T20:12:53.247Z,8.00
2023-01-03T20:15:24.352Z,8.00
2023-01-03T20:17:53.820Z,8.00
2023-01-03T20:20:24.325Z,8.10
2023-01-03T20:23:07.629Z,8.10
2023-01-03T20:25:38.229Z,8.00
2023-01-03T20:28:07.537Z,8.10
2023-01-03T20:30:36.138Z,8.20
2023-01-03T20:33:04.823Z,8.10
2023-01-03T20:36:09.840Z,8.10
2023-01-03T20:38:26.905Z,8.20
2023-01-03T20:40:57.773Z,8.20
2023-01-03T20:43:27.507Z,8.20
2023-01-03T20:45:58.561Z,8.20
2023-01-03T20:48:27.130Z,8.20
2023-01-03T20:50:55.912Z,8.20
2023-01-03T20:53:26.085Z,8.30
2023-01-03T20:55:56.032Z,8.20
2023-01-03T20:58:25.967Z,8.20
2023-01-03T21:01:02.128Z,8.10
2023-01-03T21:03:34.013Z,8.20
2023-01-03T21:06:02.889Z,8.10
2023-01-03T21:08:49.115Z,8.10
2023-01-03T21:11:19.007Z,8.00
2023-01-03T21:13:47.565Z,8.00
2023-01-03T21:16:28.093Z,7.90
2023-01-03T21:18:57.058Z,7.90
2023-01-03T21:21:26.167Z,7.90
2023-01-03T21:23:55.374Z,7.90
2023-01-03T21:26:25.467Z,7.90
2023-01-03T21:28:54.330Z,7.90
2023-01-03T21:31:24.484Z,7.90
2023-01-03T21:33:53.680Z,7.90
2023-01-03T21:36:25.172Z,8.00
2023-01-03T21:38:53.703Z,7.90
2023-01-03T21:41:24.511Z,7.90
2023-01-03T21:43:57.031Z,7.90
2023-01-03T21:46:26.611Z,7.90
2023-01-03T21:48:55.879Z,7.90
2023-01-03T21:51:37.226Z,8.00
2023-01-03T21:54:08.459Z,8.00
2023-01-03T21:56:45.121Z,8.00
2023-01-03T21:59:16.799Z,8.00
2023-01-03T22:02:03.337Z,8.00
2023-01-03T22:04:32.644Z,8.10
2023-01-03T22:07:01.895Z,8.10
2023-01-03T22:09:49.354Z,8.20
2023-01-03T22:12:18.907Z,8.20
2023-01-03T22:14:49.113Z,8.20
2023-01-03T22:17:17.841Z,8.30
2023-01-03T22:19:46.509Z,8.20
2023-01-03T22:22:15.040Z,8.20
2023-01-03T22:24:43.653Z,8.20
2023-01-03T22:27:12.409Z,8.20
2023-01-03T22:29:40.956Z,8.20
2023-01-03T22:32:10.992Z,8.30
2023-01-03T22:34:42.704Z,8.30
2023-01-03T22:37:11.257Z,8.30
2023-01-03T22:39:39.741Z,8.30
2023-01-03T22:42:08.193Z,8.30
2023-01-03T22:44:36.782Z,8.30
2023-01-03T22:47:07.720Z,8.20
2023-01-03T22:49:37.987Z,8.30
2023-01-03T22:52:06.719Z,8.20
2023-01-03T22:54:36.241Z,8.30
2023-01-03T22:57:05.103Z,8.20
2023-01-03T22:59:33.712Z,8.20
2023-01-03T23:02:02.464Z,8.20
2023-01-03T23:04:31.293Z,8.20
2023-01-03T23:07:01.348Z,8.20
2023-01-03T23:09:29.918Z,8.20
2023-01-03T23:12:16.059Z,8.20
2023-01-03T23:14:44.698Z,8.20
2023-01-03T23:17:27.190Z,8.30
2023-01-03T23:19:55.709Z,8.30
2023-01-03T23:22:26.715Z,8.40
2023-01-03T23:24:57.995Z,8.40
2023-01-03T23:27:27.490Z,8.40
2023-01-03T23:29:56.130Z,8.40
2023-01-03T23:32:24.729Z,8.40
2023-01-03T23:34:53.352Z,8.40
2023-01-03T23:37:22.012Z,8.40
2023-01-03T23:39:54.564Z,8.40
2023-01-03T23:42:23.114Z,8.50
2023-01-03T23:44:51.715Z,8.50
2023-01-03T23:47:20.362Z,8.50
2023-01-03T23:49:48.922Z,8.60
2023-01-03T23:52:17.459Z,8.70
2023-01-03T23:54:46.021Z,8.70
2023-01-03T23:57:16.017Z,8.70
2023-01-03T23:59:44.605Z,8.70
